Time;durP1;ratioP1;P1;durP2;ratioP2;P2;SDS_P1;SDS_P2;PMS_P1;PMS_P2;Temp;Humidity;BMP_temperature;BMP_pressure;BME280_temperature;BME280_humidity;BME280_pressure;Samples;Min_cycle;Max_cycle;Signal;HPM_P1;HPM_P2
2022/08/18 00:01:17;;;;;;;0.10;0.10;;;;;;;18.96;100.00;101197.34;4973918;28;20038;-68
2022/08/18 00:03:44;;;;;;;0.00;0.00;;;;;;;18.96;100.00;101200.94;4982443;28;20077;-68
2022/08/18 00:06:10;;;;;;;0.10;0.10;;;;;;;18.93;100.00;101205.81;4984310;28;20034;-67
2022/08/18 00:08:35;;;;;;;0.10;0.10;;;;;;;18.94;100.00;101207.50;4985258;28;20027;-68
2022/08/18 00:11:01;;;;;;;0.00;0.00;;;;;;;19.00;100.00;101212.31;4983567;28;20161;-68
2022/08/18 00:13:26;;;;;;;0.00;0.00;;;;;;;18.87;100.00;101189.16;4978872;28;20391;-68
2022/08/18 00:15:51;;;;;;;0.00;0.00;;;;;;;19.07;100.00;101220.69;4981656;28;20106;-68
2022/08/18 00:18:17;;;;;;;0.00;0.00;;;;;;;19.04;100.00;101219.13;4985673;28;20057;-68
2022/08/18 00:20:42;;;;;;;0.10;0.10;;;;;;;19.02;100.00;101215.72;4980626;28;20023;-67
2022/08/18 00:23:08;;;;;;;0.10;0.10;;;;;;;18.99;100.00;101225.09;4985135;28;20144;-68
2022/08/18 00:25:33;;;;;;;0.00;0.00;;;;;;;18.90;100.00;101209.72;4984590;28;20490;-68
2022/08/18 00:27:59;;;;;;;0.00;0.00;;;;;;;18.88;100.00;101201.72;4983199;28;20050;-68
2022/08/18 00:30:24;;;;;;;0.00;0.00;;;;;;;19.00;100.00;101209.59;4984720;28;20022;-67
2022/08/18 00:32:55;;;;;;;0.00;0.00;;;;;;;19.03;100.00;101212.00;4985155;28;20417;-68
2022/08/18 00:35:27;;;;;;;0.00;0.00;;;;;;;18.98;100.00;101220.66;4981856;28;20058;-68
2022/08/18 00:37:54;;;;;;;0.10;0.10;;;;;;;18.90;100.00;101226.03;4983805;28;20019;-68
2022/08/18 00:40:24;;;;;;;0.00;0.00;;;;;;;18.80;100.00;101220.72;4982830;28;20031;-68
2022/08/18 00:42:56;;;;;;;0.10;0.10;;;;;;;18.81;100.00;101227.00;4984901;28;20022;-68
2022/08/18 00:45:26;;;;;;;0.00;0.00;;;;;;;18.83;100.00;101227.69;4985553;28;20037;-68
2022/08/18 00:47:51;;;;;;;0.00;0.00;;;;;;;18.88;100.00;101226.22;4981775;28;20033;-68
2022/08/18 00:50:23;;;;;;;0.10;0.10;;;;;;;18.91;100.00;101241.34;4982634;28;20406;-68
2022/08/18 00:52:55;;;;;;;0.00;0.00;;;;;;;18.93;100.00;101231.16;4981299;28;20958;-68
2022/08/18 00:55:21;;;;;;;0.00;0.00;;;;;;;18.96;100.00;101238.16;4982553;28;20030;-68
2022/08/18 00:57:48;;;;;;;0.00;0.00;;;;;;;18.99;100.00;101235.97;4982362;28;20050;-68
2022/08/18 01:00:14;;;;;;;0.00;0.00;;;;;;;18.96;100.00;101243.59;4983721;28;20022;-68
2022/08/18 01:02:44;;;;;;;0.10;0.10;;;;;;;19.00;100.00;101240.41;4986581;28;20033;-68
2022/08/18 01:05:44;;;;;;;0.10;0.10;;;;;;;19.01;100.00;101246.69;4982008;28;20022;-68
2022/08/18 01:08:15;;;;;;;0.10;0.10;;;;;;;19.08;100.00;101249.56;4979540;28;20041;-68
2022/08/18 01:10:40;;;;;;;0.10;0.10;;;;;;;19.07;100.00;101248.75;4981755;28;20541;-67
2022/08/18 01:13:06;;;;;;;0.00;0.00;;;;;;;19.08;100.00;101244.13;4982906;28;20040;-68
2022/08/18 01:15:32;;;;;;;0.10;0.10;;;;;;;19.10;100.00;101236.66;4979001;28;20537;-68
2022/08/18 01:21:55;;;;;;;0.00;0.00;;;;;;;19.05;100.00;101220.84;4981375;28;20725;-67
2022/08/18 01:23:50;;;;;;;0.00;0.00;;;;;;;19.16;100.00;101239.59;4970202;28;20097;-67
2022/08/18 01:26:17;;;;;;;0.00;0.00;;;;;;;19.17;100.00;101232.25;4996477;28;20041;-68
2022/08/18 01:28:44;;;;;;;0.00;0.00;;;;;;;19.19;100.00;101230.22;4981834;28;20119;-67
2022/08/18 01:31:10;;;;;;;0.00;0.00;;;;;;;19.17;100.00;101238.56;4982662;28;20471;-68
2022/08/18 01:33:39;;;;;;;0.08;0.08;;;;;;;19.15;100.00;101228.84;4983898;28;20040;-68
2022/08/18 01:36:13;;;;;;;0.00;0.00;;;;;;;19.11;100.00;101235.63;4982332;28;20031;-68
2022/08/18 01:38:39;;;;;;;0.00;0.00;;;;;;;18.91;100.00;101211.41;4981348;28;20428;-67
2022/08/18 01:41:06;;;;;;;0.10;0.10;;;;;;;18.86;100.00;101216.50;4980655;28;20041;-68
2022/08/18 01:43:33;;;;;;;0.00;0.00;;;;;;;18.94;100.00;101232.84;4986704;28;20461;-68
2022/08/18 01:46:00;;;;;;;0.00;0.00;;;;;;;18.90;100.00;101236.91;4982116;28;20033;-67
2022/08/18 01:48:31;;;;;;;0.00;0.00;;;;;;;18.82;100.00;101226.00;4979347;28;20026;-68
2022/08/18 01:50:57;;;;;;;0.00;0.00;;;;;;;18.84;100.00;101232.13;4982709;28;20110;-67
2022/08/18 01:53:22;;;;;;;0.00;0.00;;;;;;;18.78;100.00;101233.66;4980839;28;20117;-68
2022/08/18 01:55:48;;;;;;;0.00;0.00;;;;;;;18.74;100.00;101233.13;4983238;28;20038;-68
2022/08/18 01:58:13;;;;;;;0.10;0.10;;;;;;;18.67;100.00;101240.22;4986595;28;20119;-68
2022/08/18 02:00:40;;;;;;;0.00;0.00;;;;;;;18.60;100.00;101228.28;4980223;28;20027;-68
2022/08/18 02:03:08;;;;;;;0.03;0.03;;;;;;;18.63;100.00;101243.44;4984625;28;20482;-67
2022/08/18 02:05:40;;;;;;;0.00;0.00;;;;;;;18.59;100.00;101237.47;4967045;28;20069;-68
2022/08/18 02:08:06;;;;;;;0.08;0.08;;;;;;;18.56;100.00;101238.66;4977939;28;20437;-68
2022/08/18 02:10:31;;;;;;;0.00;0.00;;;;;;;18.56;100.00;101232.34;4982942;28;20030;-67
2022/08/18 02:12:57;;;;;;;0.00;0.00;;;;;;;18.52;100.00;101234.56;4982134;28;20069;-68
2022/08/18 02:15:22;;;;;;;0.00;0.00;;;;;;;18.53;100.00;101233.53;4980581;28;20141;-68
2022/08/18 02:17:48;;;;;;;0.10;0.10;;;;;;;18.49;100.00;101240.31;4982579;28;20029;-67
2022/08/18 02:20:15;;;;;;;0.00;0.00;;;;;;;18.49;100.00;101242.19;4982749;28;20061;-67
2022/08/18 02:22:41;;;;;;;0.00;0.00;;;;;;;18.46;100.00;101240.63;4975836;28;20525;-68
2022/08/18 02:25:07;;;;;;;0.00;0.00;;;;;;;18.43;100.00;101247.25;4959275;28;20026;-67
2022/08/18 02:27:34;;;;;;;0.00;0.00;;;;;;;18.45;100.00;101247.09;4979257;28;20038;-68
2022/08/18 02:30:00;;;;;;;0.30;0.10;;;;;;;18.44;100.00;101257.13;4981433;28;20045;-67
2022/08/18 02:32:26;;;;;;;0.10;0.10;;;;;;;18.42;100.00;101248.28;4981723;28;20030;-68
2022/08/18 02:34:51;;;;;;;0.00;0.00;;;;;;;18.39;100.00;101251.31;4972357;28;20510;-67
2022/08/18 02:37:17;;;;;;;0.00;0.00;;;;;;;18.40;100.00;101249.47;4975383;28;20401;-67
2022/08/18 02:39:43;;;;;;;0.00;0.00;;;;;;;18.37;100.00;101252.50;4984821;28;20118;-68
2022/08/18 02:42:08;;;;;;;0.00;0.00;;;;;;;18.35;100.00;101249.91;4975095;28;20030;-68
2022/08/18 02:44:34;;;;;;;0.00;0.00;;;;;;;18.31;100.00;101250.41;4976687;28;20031;-68
2022/08/18 02:46:59;;;;;;;0.00;0.00;;;;;;;18.26;100.00;101250.91;4967013;28;20038;-68
2022/08/18 02:49:25;;;;;;;0.10;0.10;;;;;;;18.19;100.00;101253.38;4977067;28;20084;-67
2022/08/18 02:51:51;;;;;;;0.00;0.00;;;;;;;18.16;100.00;101263.72;4975516;28;21003;-67
2022/08/18 02:54:19;;;;;;;0.00;0.00;;;;;;;18.12;100.00;101258.63;4976413;28;20049;-67
2022/08/18 02:56:44;;;;;;;0.10;0.10;;;;;;;18.13;100.00;101262.19;4975681;28;20073;-67
2022/08/18 02:59:15;;;;;;;0.05;0.05;;;;;;;18.12;100.00;101255.06;4976961;28;20022;-68
2022/08/18 03:01:44;;;;;;;0.00;0.00;;;;;;;18.09;100.00;101258.09;4978579;28;20040;-67
2022/08/18 03:04:11;;;;;;;0.00;0.00;;;;;;;18.08;100.00;101262.66;4979599;28;20066;-68
2022/08/18 03:06:37;;;;;;;0.00;0.00;;;;;;;18.04;100.00;101263.97;4973883;28;20044;-67
2022/08/18 03:09:05;;;;;;;0.00;0.00;;;;;;;18.04;100.00;101265.84;4973837;28;20038;-67
2022/08/18 03:11:30;;;;;;;0.00;0.00;;;;;;;17.95;100.00;101248.63;4975196;28;21023;-67
2022/08/18 03:13:56;;;;;;;0.00;0.00;;;;;;;18.05;100.00;101254.81;4978579;28;20073;-68
2022/08/18 03:16:23;;;;;;;0.00;0.00;;;;;;;17.99;100.00;101256.31;4977417;28;20034;-68
2022/08/18 03:18:49;;;;;;;0.00;0.00;;;;;;;17.96;100.00;101253.88;4982150;28;20064;-68
2022/08/18 03:21:20;;;;;;;0.00;0.00;;;;;;;17.93;100.00;101251.47;4984335;28;20030;-68
2022/08/18 03:23:45;;;;;;;0.00;0.00;;;;;;;17.78;100.00;101231.34;4961216;28;20022;-67
2022/08/18 03:26:12;;;;;;;0.00;0.00;;;;;;;17.80;100.00;101254.59;4974293;28;20486;-68
2022/08/18 03:28:39;;;;;;;0.00;0.00;;;;;;;17.78;100.00;101253.06;4980666;28;20053;-67
2022/08/18 03:31:05;;;;;;;0.00;0.00;;;;;;;17.75;100.00;101259.66;4975928;28;20034;-68
2022/08/18 03:33:31;;;;;;;0.00;0.00;;;;;;;17.78;100.00;101256.63;4977403;28;20058;-68
2022/08/18 03:36:12;;;;;;;0.00;0.00;;;;;;;17.81;100.00;101260.91;4985882;28;20121;-68
2022/08/18 03:38:38;;;;;;;0.00;0.00;;;;;;;17.76;100.00;101260.50;4979997;28;20037;-68
2022/08/18 03:41:07;;;;;;;0.00;0.00;;;;;;;17.80;100.00;101267.34;4988620;28;20030;-67
2022/08/18 03:43:33;;;;;;;0.00;0.00;;;;;;;17.88;100.00;101266.56;4981068;28;20026;-68
2022/08/18 03:46:03;;;;;;;0.00;0.00;;;;;;;17.94;100.00;101265.94;4985013;28;20030;-67
2022/08/18 03:48:29;;;;;;;0.10;0.10;;;;;;;17.98;100.00;101272.75;4981570;28;20031;-67
2022/08/18 03:51:02;;;;;;;0.00;0.00;;;;;;;18.03;100.00;101273.13;4980526;28;20065;-68
2022/08/18 03:53:27;;;;;;;0.00;0.00;;;;;;;18.10;100.00;101273.38;4982063;28;20030;-67
2022/08/18 03:55:52;;;;;;;0.00;0.00;;;;;;;18.14;100.00;101269.34;4981483;28;20027;-67
2022/08/18 03:58:18;;;;;;;0.00;0.00;;;;;;;18.16;100.00;101269.16;4985708;28;20026;-67
2022/08/18 04:00:43;;;;;;;0.00;0.00;;;;;;;18.12;100.00;101263.22;4988190;28;20053;-68
2022/08/18 04:03:09;;;;;;;0.00;0.00;;;;;;;18.05;100.00;101249.38;4987286;28;20054;-67
2022/08/18 04:05:38;;;;;;;0.00;0.00;;;;;;;18.01;100.00;101247.16;4983188;28;20033;-68
2022/08/18 04:08:05;;;;;;;0.00;0.00;;;;;;;18.04;100.00;101252.28;4977343;28;22303;-68
2022/08/18 04:10:31;;;;;;;0.00;0.00;;;;;;;18.06;100.00;101245.66;4975670;28;20499;-68
2022/08/18 04:12:56;;;;;;;0.00;0.00;;;;;;;18.09;100.00;101239.06;4973949;28;20058;-68
2022/08/18 04:15:22;;;;;;;0.10;0.10;;;;;;;18.06;100.00;101250.25;4981310;28;20026;-67
2022/08/18 04:17:47;;;;;;;0.00;0.00;;;;;;;18.05;100.00;101251.25;4973739;28;20549;-68
2022/08/18 04:20:12;;;;;;;0.10;0.10;;;;;;;18.05;100.00;101256.69;4974288;28;20430;-68
2022/08/18 04:22:38;;;;;;;0.00;0.00;;;;;;;18.07;100.00;101260.94;4976935;28;20442;-68
2022/08/18 04:25:08;;;;;;;0.00;0.00;;;;;;;18.10;100.00;101252.47;4973564;28;20775;-68
2022/08/18 04:27:33;;;;;;;0.00;0.00;;;;;;;18.11;100.00;101256.91;4977584;28;20027;-68
2022/08/18 04:29:59;;;;;;;0.00;0.00;;;;;;;18.13;100.00;101257.59;4972759;28;20069;-67
2022/08/18 04:32:24;;;;;;;0.00;0.00;;;;;;;18.14;100.00;101256.59;4978412;28;20026;-68
2022/08/18 04:34:49;;;;;;;0.00;0.00;;;;;;;18.18;100.00;101262.56;4981538;28;20026;-68
2022/08/18 04:37:16;;;;;;;0.00;0.00;;;;;;;18.16;100.00;101264.56;4978313;28;20497;-68
2022/08/18 04:39:41;;;;;;;0.00;0.00;;;;;;;18.17;100.00;101262.72;4982388;28;20343;-68
2022/08/18 04:42:07;;;;;;;0.00;0.00;;;;;;;18.02;100.00;101252.41;4979553;28;20031;-68
2022/08/18 04:44:36;;;;;;;0.10;0.10;;;;;;;17.97;100.00;101257.47;4979731;28;20333;-67
2022/08/18 04:47:03;;;;;;;0.10;0.10;;;;;;;17.94;100.00;101255.91;4977109;28;20023;-68
2022/08/18 04:49:30;;;;;;;0.05;0.05;;;;;;;17.95;100.00;101257.59;4977266;28;20794;-68
2022/08/18 04:54:40;;;;;;;0.00;0.00;;;;;;;17.98;100.00;101259.16;4981952;28;20045;-68
2022/08/18 04:57:17;;;;;;;0.00;0.00;;;;;;;17.99;100.00;101264.47;4980411;28;20034;-68
2022/08/18 04:59:45;;;;;;;0.00;0.00;;;;;;;17.90;100.00;101245.50;4980494;28;20058;-68
2022/08/18 05:02:11;;;;;;;0.10;0.10;;;;;;;17.99;100.00;101260.91;4981691;28;20022;-68
2022/08/18 05:04:39;;;;;;;0.10;0.05;;;;;;;17.94;100.00;101271.34;4981075;28;20030;-68
2022/08/18 05:07:06;;;;;;;0.00;0.00;;;;;;;17.91;100.00;101269.78;4980221;28;20390;-68
2022/08/18 05:09:31;;;;;;;0.00;0.00;;;;;;;17.88;100.00;101280.13;4979098;28;20030;-69
2022/08/18 05:11:57;;;;;;;0.10;0.10;;;;;;;17.89;100.00;101282.69;4983392;28;20033;-71
2022/08/18 05:14:23;;;;;;;0.05;0.05;;;;;;;17.61;100.00;101247.47;4977813;28;20053;-68
2022/08/18 05:16:48;;;;;;;0.05;0.05;;;;;;;17.87;100.00;101275.72;4982477;28;20026;-69
2022/08/18 05:19:15;;;;;;;0.00;0.00;;;;;;;17.84;100.00;101274.16;4982926;28;20031;-68
2022/08/18 05:21:41;;;;;;;0.05;0.05;;;;;;;18.02;100.00;101289.63;4981744;28;20278;-68
2022/08/18 05:24:07;;;;;;;0.00;0.00;;;;;;;18.06;100.00;101291.84;4977972;28;20030;-68
2022/08/18 05:26:33;;;;;;;0.00;0.00;;;;;;;18.10;100.00;101295.97;4976703;28;20029;-69
2022/08/18 05:28:59;;;;;;;0.00;0.00;;;;;;;17.83;100.00;101248.03;4977182;28;20105;-68
2022/08/18 05:31:26;;;;;;;0.00;0.00;;;;;;;17.96;100.00;101261.19;4984504;28;20030;-68
2022/08/18 05:33:54;;;;;;;0.10;0.10;;;;;;;18.07;100.00;101277.25;4966925;28;20026;-68
2022/08/18 05:36:45;;;;;;;0.00;0.00;;;;;;;17.97;100.00;101265.63;4972818;28;20059;-68
2022/08/18 05:39:16;;;;;;;0.00;0.00;;;;;;;18.09;100.00;101277.13;4976664;28;20049;-68
2022/08/18 05:41:45;;;;;;;0.08;0.08;;;;;;;18.13;100.00;101275.78;4978560;28;20525;-70
2022/08/18 05:44:14;;;;;;;0.00;0.00;;;;;;;17.98;100.00;101251.88;4985379;28;20475;-70
2022/08/18 05:46:53;;;;;;;0.00;0.00;;;;;;;18.20;100.00;101276.84;4982353;28;20076;-68
2022/08/18 05:49:19;;;;;;;0.10;0.10;;;;;;;18.24;100.00;101286.38;4974906;28;20038;-68
2022/08/18 05:51:48;;;;;;;0.00;0.00;;;;;;;18.24;100.00;101290.97;4981340;28;20026;-68
2022/08/18 05:57:02;;;;;;;0.05;0.05;;;;;;;18.26;100.00;101294.38;4983493;28;20057;-68
2022/08/18 05:59:33;;;;;;;0.10;0.10;;;;;;;18.31;100.00;101299.34;4985547;28;20023;-68
2022/08/18 06:02:11;;;;;;;0.10;0.10;;;;;;;18.38;100.00;101300.41;4986354;28;20504;-68
2022/08/18 06:04:44;;;;;;;0.10;0.10;;;;;;;18.34;100.00;101299.03;4982307;28;20072;-68
2022/08/18 06:07:13;;;;;;;0.00;0.00;;;;;;;18.41;100.00;101303.66;4982839;28;20034;-68
2022/08/18 06:09:53;;;;;;;0.10;0.10;;;;;;;18.38;100.00;101309.41;4986606;28;20610;-68
2022/08/18 06:12:29;;;;;;;0.10;0.10;;;;;;;18.44;100.00;101297.91;4986447;28;20030;-68
2022/08/18 06:15:02;;;;;;;0.00;0.00;;;;;;;18.45;100.00;101298.75;4976370;28;20026;-69
2022/08/18 06:17:46;;;;;;;0.00;0.00;;;;;;;18.49;100.00;101296.56;4989741;28;20117;-68
2022/08/18 06:20:24;;;;;;;0.10;0.10;;;;;;;18.44;100.00;101313.34;4989344;28;20053;-68
2022/08/18 06:23:00;;;;;;;0.00;0.00;;;;;;;18.49;100.00;101305.56;4985665;28;20037;-68
2022/08/18 06:25:33;;;;;;;0.00;0.00;;;;;;;18.51;100.00;101305.41;4981816;28;20041;-68
2022/08/18 06:28:09;;;;;;;0.00;0.00;;;;;;;18.53;100.00;101311.56;4987959;28;20027;-68
2022/08/18 06:30:40;;;;;;;0.00;0.00;;;;;;;18.61;100.00;101321.63;4980103;28;20034;-69
2022/08/18 06:33:41;;;;;;;0.00;0.00;;;;;;;18.59;100.00;101329.91;4985485;28;20054;-68
2022/08/18 06:36:29;;;;;;;0.00;0.00;;;;;;;18.69;100.00;101327.09;4981458;28;20056;-68
2022/08/18 06:39:28;;;;;;;0.00;0.00;;;;;;;18.74;100.00;101325.59;4973566;28;20061;-68
2022/08/18 06:41:53;;;;;;;0.10;0.10;;;;;;;18.74;100.00;101330.19;4971613;28;20027;-68
2022/08/18 06:44:32;;;;;;;0.00;0.00;;;;;;;18.67;100.00;101343.56;4984043;28;20030;-68
2022/08/18 06:47:21;;;;;;;0.03;0.03;;;;;;;18.80;100.00;101342.31;4986012;28;20050;-68
2022/08/18 06:50:24;;;;;;;0.00;0.00;;;;;;;18.91;100.00;101341.16;4981289;28;20066;-68
2022/08/18 06:53:02;;;;;;;0.00;0.00;;;;;;;18.95;100.00;101331.63;4976901;28;20073;-68
2022/08/18 06:55:37;;;;;;;0.00;0.00;;;;;;;19.03;100.00;101346.19;4982927;28;20490;-68
2022/08/18 06:58:23;;;;;;;0.05;0.05;;;;;;;18.93;100.00;101344.56;4988062;28;20031;-68
2022/08/18 07:00:51;;;;;;;0.10;0.10;;;;;;;19.07;100.00;101346.69;4985989;28;20029;-68
2022/08/18 07:03:22;;;;;;;0.00;0.00;;;;;;;19.16;100.00;101342.16;4988023;28;20614;-68
2022/08/18 07:06:22;;;;;;;0.00;0.00;;;;;;;19.18;100.00;101343.69;4978725;28;20038;-68
2022/08/18 07:08:50;;;;;;;0.08;0.08;;;;;;;19.28;100.00;101331.81;4977452;28;20117;-68
2022/08/18 07:11:16;;;;;;;0.00;0.00;;;;;;;19.33;100.00;101335.72;4982411;28;20035;-66
2022/08/18 07:13:43;;;;;;;0.00;0.00;;;;;;;19.46;100.00;101335.28;4981955;28;20446;-70
2022/08/18 07:16:17;;;;;;;0.00;0.00;;;;;;;19.65;100.00;101327.81;4986679;28;20324;-70
2022/08/18 07:18:42;;;;;;;0.00;0.00;;;;;;;19.78;100.00;101336.34;4984570;28;20379;-69
2022/08/18 07:21:08;;;;;;;0.00;0.00;;;;;;;20.05;100.00;101328.91;4987216;28;20065;-71
2022/08/18 07:23:39;;;;;;;0.00;0.00;;;;;;;20.21;100.00;101325.31;4987450;28;20125;-70
2022/08/18 07:26:17;;;;;;;0.00;0.00;;;;;;;20.32;100.00;101332.28;4979357;28;20058;-69
2022/08/18 07:28:48;;;;;;;0.00;0.00;;;;;;;20.55;100.00;101328.84;4988076;28;20030;-69
2022/08/18 07:31:33;;;;;;;0.00;0.00;;;;;;;20.58;100.00;101333.94;4989245;28;20030;-70
2022/08/18 07:34:17;;;;;;;0.00;0.00;;;;;;;20.73;99.60;101342.28;4983498;28;20245;-69
2022/08/18 07:36:53;;;;;;;0.03;0.03;;;;;;;20.73;100.00;101335.97;4981421;28;20387;-70
2022/08/18 07:39:27;;;;;;;0.00;0.00;;;;;;;20.63;99.88;101331.56;4983501;28;20066;-70
2022/08/18 07:42:03;;;;;;;0.00;0.00;;;;;;;20.73;99.21;101341.44;4979436;28;20033;-71
2022/08/18 07:44:37;;;;;;;0.10;0.10;;;;;;;20.92;98.65;101346.53;4976574;28;20567;-70
2022/08/18 07:47:06;;;;;;;0.00;0.00;;;;;;;20.99;97.96;101341.19;4977056;28;20529;-71
2022/08/18 07:49:34;;;;;;;0.10;0.10;;;;;;;21.05;98.43;101321.38;4988392;28;20408;-71
2022/08/18 07:52:07;;;;;;;0.00;0.00;;;;;;;21.13;97.46;101356.00;4982957;28;20437;-71
2022/08/18 07:55:07;;;;;;;0.00;0.00;;;;;;;21.04;96.06;101360.63;4979632;28;20026;-71
2022/08/18 07:57:43;;;;;;;0.00;0.00;;;;;;;21.04;96.39;101352.44;4987041;28;20034;-71
2022/08/18 08:00:33;;;;;;;0.52;0.03;;;;;;;21.16;94.80;101357.53;4986999;28;20053;-71
2022/08/18 08:03:20;;;;;;;0.00;0.00;;;;;;;21.15;94.45;101355.81;4978894;28;20015;-71
2022/08/18 08:06:06;;;;;;;0.00;0.00;;;;;;;21.27;93.23;101357.13;4988741;28;20076;-70
2022/08/18 08:09:00;;;;;;;0.00;0.00;;;;;;;21.56;93.08;101353.75;4976428;28;20045;-71
2022/08/18 08:11:50;;;;;;;0.00;0.00;;;;;;;21.70;91.94;101338.50;4982932;28;20337;-70
2022/08/18 08:14:47;;;;;;;0.00;0.00;;;;;;;21.76;91.64;101345.09;4981734;28;20069;-69
2022/08/18 08:17:39;;;;;;;0.00;0.00;;;;;;;21.64;89.14;101344.66;4995459;28;20502;-69
2022/08/18 08:20:15;;;;;;;0.00;0.00;;;;;;;21.63;90.40;101356.63;4987999;28;20040;-69
2022/08/18 08:23:02;;;;;;;0.00;0.00;;;;;;;21.52;90.06;101355.13;4985083;28;20030;-69
2022/08/18 08:25:42;;;;;;;0.00;0.00;;;;;;;21.55;89.59;101353.91;4976650;28;20425;-69
2022/08/18 08:28:34;;;;;;;0.00;0.00;;;;;;;21.54;89.43;101342.13;4988389;28;20018;-70
2022/08/18 08:31:03;;;;;;;0.00;0.00;;;;;;;21.66;90.21;101350.81;4987456;28;20032;-70
2022/08/18 08:33:50;;;;;;;0.00;0.00;;;;;;;21.73;88.47;101357.22;4976209;28;20470;-70
2022/08/18 08:36:30;;;;;;;0.00;0.00;;;;;;;21.94;88.81;101352.13;4979290;28;20037;-69
2022/08/18 08:38:58;;;;;;;0.00;0.00;;;;;;;22.14;89.81;101352.50;4981535;28;20136;-69
2022/08/18 08:41:31;;;;;;;0.00;0.00;;;;;;;22.17;89.07;101344.75;4984793;28;20325;-68
2022/08/18 08:44:17;;;;;;;0.00;0.00;;;;;;;22.08;88.16;101362.28;4985624;28;20037;-69
2022/08/18 08:46:59;;;;;;;0.00;0.00;;;;;;;22.37;87.47;101346.13;4982339;28;20061;-69
2022/08/18 08:49:39;;;;;;;0.00;0.00;;;;;;;22.62;85.04;101355.84;4979311;28;20042;-69
2022/08/18 08:52:11;;;;;;;0.00;0.00;;;;;;;22.80;83.72;101351.88;4977141;28;20475;-69
2022/08/18 08:54:52;;;;;;;0.00;0.00;;;;;;;22.79;83.24;101361.13;4980546;28;20077;-70
2022/08/18 08:57:20;;;;;;;0.00;0.00;;;;;;;22.83;83.57;101356.97;4978393;28;20038;-68
2022/08/18 08:59:47;;;;;;;0.00;0.00;;;;;;;22.85;82.82;101365.00;4988154;28;20045;-68
2022/08/18 09:02:33;;;;;;;0.00;0.00;;;;;;;22.86;82.20;101363.97;4977946;28;20038;-69
2022/08/18 09:05:11;;;;;;;0.00;0.00;;;;;;;22.82;82.45;101358.00;4984573;28;20121;-69
2022/08/18 09:08:05;;;;;;;0.00;0.00;;;;;;;22.83;82.61;101365.19;4979554;28;20509;-69
2022/08/18 09:11:12;;;;;;;0.00;0.00;;;;;;;22.76;82.78;101356.88;4978753;28;20042;-69
2022/08/18 09:13:48;;;;;;;0.00;0.00;;;;;;;22.73;82.86;101354.50;4967163;28;20117;-69
2022/08/18 09:16:32;;;;;;;0.00;0.00;;;;;;;22.49;81.40;101357.50;4983181;28;20112;-70
2022/08/18 09:19:12;;;;;;;0.00;0.00;;;;;;;22.55;82.64;101356.78;4982686;28;20057;-70
2022/08/18 09:21:39;;;;;;;0.00;0.00;;;;;;;22.61;82.30;101362.34;4968815;28;20113;-69
2022/08/18 09:24:22;;;;;;;0.00;0.00;;;;;;;22.72;82.08;101338.28;4981644;28;20030;-70
2022/08/18 09:26:53;;;;;;;0.00;0.00;;;;;;;23.11;81.20;101359.03;4986582;28;20038;-69
2022/08/18 09:29:24;;;;;;;0.00;0.00;;;;;;;22.88;77.64;101365.47;4980343;28;20034;-69
2022/08/18 09:32:29;;;;;;;0.00;0.00;;;;;;;22.84;79.32;101355.09;4983470;28;20030;-69
2022/08/18 09:35:09;;;;;;;0.00;0.00;;;;;;;22.89;81.88;101358.97;4980650;28;20036;-69
2022/08/18 09:44:09;;;;;;;0.00;0.00;;;;;;;23.47;78.37;101357.41;4982626;28;20028;-69
2022/08/18 09:46:46;;;;;;;0.00;0.00;;;;;;;23.99;73.70;101347.25;4986674;28;20034;-70
2022/08/18 09:49:24;;;;;;;0.00;0.00;;;;;;;24.24;72.99;101338.59;4987215;28;20026;-69
2022/08/18 09:52:21;;;;;;;0.00;0.00;;;;;;;24.58;71.36;101342.44;4982955;28;20030;-70
2022/08/18 09:54:58;;;;;;;0.00;0.00;;;;;;;24.67;71.02;101343.97;4975513;28;20505;-70
2022/08/18 09:57:31;;;;;;;0.00;0.00;;;;;;;24.48;71.76;101345.53;4986251;28;20040;-70
2022/08/18 10:00:18;;;;;;;0.00;0.00;;;;;;;24.06;71.73;101347.28;4984245;28;20025;-70
2022/08/18 10:02:46;;;;;;;0.00;0.00;;;;;;;24.09;73.55;101355.13;4972555;28;20034;-69
2022/08/18 10:05:14;;;;;;;0.00;0.00;;;;;;;23.99;72.67;101354.59;4982373;28;20026;-70
2022/08/18 10:07:52;;;;;;;0.00;0.00;;;;;;;23.93;72.53;101354.34;4982177;28;20034;-69
2022/08/18 10:10:26;;;;;;;0.00;0.00;;;;;;;23.75;73.25;101353.91;4984191;28;20057;-69
2022/08/18 10:13:13;;;;;;;0.00;0.00;;;;;;;23.62;73.96;101347.25;4982276;28;20033;-69
2022/08/18 10:15:56;;;;;;;0.00;0.00;;;;;;;23.69;74.04;101350.06;4980055;28;20072;-69
2022/08/18 10:18:30;;;;;;;0.00;0.00;;;;;;;23.83;74.91;101350.22;4971688;28;20033;-69
2022/08/18 10:21:02;;;;;;;0.00;0.00;;;;;;;24.01;74.64;101338.81;4978169;28;20383;-68
2022/08/18 10:23:57;;;;;;;0.00;0.00;;;;;;;24.41;69.72;101336.41;4983352;28;20068;-69
2022/08/18 10:26:28;;;;;;;0.00;0.00;;;;;;;24.86;69.70;101336.94;4982479;28;20129;-69
2022/08/18 10:28:58;;;;;;;0.00;0.00;;;;;;;25.08;70.23;101344.22;4986638;28;20064;-69
2022/08/18 10:31:28;;;;;;;0.00;0.00;;;;;;;24.94;68.35;101332.34;4976137;28;20082;-69
2022/08/18 10:34:06;;;;;;;0.00;0.00;;;;;;;24.56;69.02;101334.38;4973278;28;20142;-69
2022/08/18 10:36:43;;;;;;;0.00;0.00;;;;;;;24.37;70.16;101330.44;4986797;28;20367;-69
2022/08/18 10:39:38;;;;;;;0.00;0.00;;;;;;;24.23;70.31;101334.16;4984946;28;20026;-70
2022/08/18 10:42:09;;;;;;;0.00;0.00;;;;;;;24.19;69.96;101333.72;4975407;28;20586;-69
2022/08/18 10:44:39;;;;;;;0.00;0.00;;;;;;;24.21;70.37;101337.09;4984974;28;20105;-71
2022/08/18 10:47:05;;;;;;;0.00;0.00;;;;;;;24.29;68.97;101327.00;4980619;28;20072;-69
2022/08/18 10:49:32;;;;;;;0.00;0.00;;;;;;;24.65;69.09;101324.09;4988551;28;20471;-69
2022/08/18 10:52:16;;;;;;;0.00;0.00;;;;;;;24.36;66.53;101306.84;4985523;28;20721;-70
2022/08/18 10:55:00;;;;;;;0.00;0.00;;;;;;;24.44;66.67;101327.78;4985491;28;20541;-70
2022/08/18 10:57:26;;;;;;;;;;;;;;;24.14;68.33;101333.44;4985136;28;20030;-70
2022/08/18 10:59:58;;;;;;;0.00;0.00;;;;;;;24.30;68.95;101331.44;4989777;28;19917;-70
2022/08/18 11:02:37;;;;;;;0.00;0.00;;;;;;;24.52;68.71;101332.25;4987373;28;20554;-70
2022/08/18 11:05:10;;;;;;;0.00;0.00;;;;;;;24.50;69.05;101335.19;4985917;28;20027;-71
2022/08/18 11:07:41;;;;;;;0.00;0.00;;;;;;;24.67;67.86;101338.47;4985892;28;20414;-70
2022/08/18 11:10:18;;;;;;;0.00;0.00;;;;;;;25.18;65.08;101335.59;4982432;28;20599;-70
2022/08/18 11:13:05;;;;;;;0.00;0.00;;;;;;;25.70;65.67;101330.50;4982865;28;20026;-70
2022/08/18 11:16:03;;;;;;;0.00;0.00;;;;;;;26.57;63.89;101327.78;4988238;28;20049;-70
2022/08/18 11:18:47;;;;;;;0.00;0.00;;;;;;;26.92;55.98;101327.50;4982647;28;20516;-70
2022/08/18 11:21:38;;;;;;;0.00;0.00;;;;;;;26.30;58.72;101319.56;4980525;28;20022;-70
2022/08/18 11:24:23;;;;;;;0.00;0.00;;;;;;;25.64;61.56;101321.19;4974673;28;20023;-70
2022/08/18 11:26:56;;;;;;;0.00;0.00;;;;;;;25.51;62.51;101291.75;4987119;28;20450;-70
2022/08/18 11:29:39;;;;;;;0.00;0.00;;;;;;;25.68;62.11;101311.47;4986574;28;20118;-70
2022/08/18 11:32:04;;;;;;;0.00;0.00;;;;;;;25.58;63.46;101311.00;4986708;28;20042;-70
2022/08/18 11:34:35;;;;;;;0.00;0.00;;;;;;;25.33;63.02;101300.56;4985393;28;20030;-70
2022/08/18 11:37:04;;;;;;;0.00;0.00;;;;;;;25.40;63.69;101292.34;4981524;28;20438;-70
2022/08/18 11:39:30;;;;;;;0.00;0.00;;;;;;;25.51;63.56;101285.44;4981089;28;20027;-70
2022/08/18 11:41:56;;;;;;;0.00;0.00;;;;;;;25.63;63.08;101288.41;4980080;28;20437;-70
2022/08/18 11:44:30;;;;;;;0.00;0.00;;;;;;;25.98;62.30;101282.72;4986174;28;20038;-71
2022/08/18 11:47:07;;;;;;;0.00;0.00;;;;;;;26.54;58.69;101270.41;4987829;28;20034;-70
2022/08/18 11:49:35;;;;;;;0.00;0.00;;;;;;;27.51;58.50;101279.78;4981427;28;20062;-71
2022/08/18 11:52:16;;;;;;;0.00;0.00;;;;;;;28.38;55.37;101275.44;4986994;28;20046;-70
2022/08/18 11:54:45;;;;;;;0.00;0.00;;;;;;;28.59;55.03;101260.38;4981022;28;20077;-71
2022/08/18 11:57:45;;;;;;;0.00;0.00;;;;;;;29.23;49.08;101259.16;4978438;28;20118;-72
2022/08/18 12:00:52;;;;;;;0.00;0.00;;;;;;;30.08;47.10;101257.19;4980525;28;20026;-70